sensor_id;sensor_type;location;lat;lon;timestamp;temperature;humidity
4993;DHT22;2514;53.524;10.166;2022-11-24T00:01:03;4.60;99.90
4993;DHT22;2514;53.524;10.166;2022-11-24T00:03:32;4.60;99.90
4993;DHT22;2514;53.524;10.166;2022-11-24T00:06:04;4.60;99.90
4993;DHT22;2514;53.524;10.166;2022-11-24T00:08:32;4.50;99.90
4993;DHT22;2514;53.524;10.166;2022-11-24T00:11:03;4.60;99.90
4993;DHT22;2514;53.524;10.166;2022-11-24T00:13:33;4.50;99.90
4993;DHT22;2514;53.524;10.166;2022-11-24T00:16:05;4.50;99.90
4993;DHT22;2514;53.524;10.166;2022-11-24T00:18:36;4.50;99.90
4993;DHT22;2514;53.524;10.166;2022-11-24T00:21:03;4.40;99.90
4993;DHT22;2514;53.524;10.166;2022-11-24T00:23:30;4.40;99.90
4993;DHT22;2514;53.524;10.166;2022-11-24T00:26:03;4.40;99.90
4993;DHT22;2514;53.524;10.166;2022-11-24T00:28:32;4.30;99.90
4993;DHT22;2514;53.524;10.166;2022-11-24T00:31:00;4.30;99.90
4993;DHT22;2514;53.524;10.166;2022-11-24T00:33:28;4.30;99.90
4993;DHT22;2514;53.524;10.166;2022-11-24T00:35:57;4.30;99.90
4993;DHT22;2514;53.524;10.166;2022-11-24T00:38:25;4.30;99.90
4993;DHT22;2514;53.524;10.166;2022-11-24T00:40:52;4.30;99.90
4993;DHT22;2514;53.524;10.166;2022-11-24T00:43:20;4.30;99.90
4993;DHT22;2514;53.524;10.166;2022-11-24T00:45:47;4.20;99.90
4993;DHT22;2514;53.524;10.166;2022-11-24T00:48:14;4.20;99.90
4993;DHT22;2514;53.524;10.166;2022-11-24T00:50:41;4.20;99.90
4993;DHT22;2514;53.524;10.166;2022-11-24T00:53:09;4.20;99.90
4993;DHT22;2514;53.524;10.166;2022-11-24T00:55:39;4.20;99.90
4993;DHT22;2514;53.524;10.166;2022-11-24T00:58:06;4.20;99.90
4993;DHT22;2514;53.524;10.166;2022-11-24T01:00:33;4.20;99.90
4993;DHT22;2514;53.524;10.166;2022-11-24T01:03:00;4.20;99.90
4993;DHT22;2514;53.524;10.166;2022-11-24T01:05:27;4.20;99.90
4993;DHT22;2514;53.524;10.166;2022-11-24T01:07:54;4.20;99.90
4993;DHT22;2514;53.524;10.166;2022-11-24T01:10:22;4.20;99.90
4993;DHT22;2514;53.524;10.166;2022-11-24T01:12:49;4.20;99.90
4993;DHT22;2514;53.524;10.166;2022-11-24T01:15:17;4.20;99.90
4993;DHT22;2514;53.524;10.166;2022-11-24T01:17:44;4.20;99.90
4993;DHT22;2514;53.524;10.166;2022-11-24T01:20:11;4.20;99.90
4993;DHT22;2514;53.524;10.166;2022-11-24T01:22:39;4.20;99.90
4993;DHT22;2514;53.524;10.166;2022-11-24T01:25:07;4.20;99.90
4993;DHT22;2514;53.524;10.166;2022-11-24T01:27:37;4.20;99.90
4993;DHT22;2514;53.524;10.166;2022-11-24T01:30:05;4.20;99.90
4993;DHT22;2514;53.524;10.166;2022-11-24T01:32:33;4.20;99.90
4993;DHT22;2514;53.524;10.166;2022-11-24T01:35:00;4.20;99.90
4993;DHT22;2514;53.524;10.166;2022-11-24T01:37:27;4.20;99.90
4993;DHT22;2514;53.524;10.166;2022-11-24T01:39:55;4.20;99.90
4993;DHT22;2514;53.524;10.166;2022-11-24T01:42:22;4.20;99.90
4993;DHT22;2514;53.524;10.166;2022-11-24T01:48:01;4.20;99.90
4993;DHT22;2514;53.524;10.166;2022-11-24T01:50:30;4.30;99.90
4993;DHT22;2514;53.524;10.166;2022-11-24T01:52:57;4.20;99.90
4993;DHT22;2514;53.524;10.166;2022-11-24T01:55:28;4.30;99.90
4993;DHT22;2514;53.524;10.166;2022-11-24T01:58:02;4.30;99.90
4993;DHT22;2514;53.524;10.166;2022-11-24T02:00:34;4.30;99.90
4993;DHT22;2514;53.524;10.166;2022-11-24T02:03:02;4.30;99.90
4993;DHT22;2514;53.524;10.166;2022-11-24T02:05:33;4.30;99.90
4993;DHT22;2514;53.524;10.166;2022-11-24T02:08:05;4.30;99.90
4993;DHT22;2514;53.524;10.166;2022-11-24T02:10:38;4.40;99.90
4993;DHT22;2514;53.524;10.166;2022-11-24T02:13:05;4.40;99.90
4993;DHT22;2514;53.524;10.166;2022-11-24T02:15:33;4.30;99.90
4993;DHT22;2514;53.524;10.166;2022-11-24T02:18:01;4.40;99.90
4993;DHT22;2514;53.524;10.166;2022-11-24T02:20:28;4.30;99.90
4993;DHT22;2514;53.524;10.166;2022-11-24T02:22:59;4.40;99.90
4993;DHT22;2514;53.524;10.166;2022-11-24T02:25:34;4.40;99.90
4993;DHT22;2514;53.524;10.166;2022-11-24T02:28:11;4.30;99.90
4993;DHT22;2514;53.524;10.166;2022-11-24T02:30:40;4.40;99.90
4993;DHT22;2514;53.524;10.166;2022-11-24T02:33:09;4.30;99.90
4993;DHT22;2514;53.524;10.166;2022-11-24T02:35:37;4.30;99.90
4993;DHT22;2514;53.524;10.166;2022-11-24T02:38:04;4.40;99.90
4993;DHT22;2514;53.524;10.166;2022-11-24T02:40:32;4.40;99.90
4993;DHT22;2514;53.524;10.166;2022-11-24T02:43:02;4.40;99.90
4993;DHT22;2514;53.524;10.166;2022-11-24T02:45:32;4.40;99.90
4993;DHT22;2514;53.524;10.166;2022-11-24T02:47:59;4.50;99.90
4993;DHT22;2514;53.524;10.166;2022-11-24T02:50:26;4.50;99.90
4993;DHT22;2514;53.524;10.166;2022-11-24T02:52:53;4.40;99.90
4993;DHT22;2514;53.524;10.166;2022-11-24T02:55:20;4.40;99.90
4993;DHT22;2514;53.524;10.166;2022-11-24T02:57:48;4.40;99.90
4993;DHT22;2514;53.524;10.166;2022-11-24T03:00:16;4.40;99.90
4993;DHT22;2514;53.524;10.166;2022-11-24T03:02:45;4.40;99.90
4993;DHT22;2514;53.524;10.166;2022-11-24T03:05:12;4.40;99.90
4993;DHT22;2514;53.524;10.166;2022-11-24T03:07:39;4.40;99.90
4993;DHT22;2514;53.524;10.166;2022-11-24T03:10:07;4.30;99.90
4993;DHT22;2514;53.524;10.166;2022-11-24T03:12:34;4.30;99.90
4993;DHT22;2514;53.524;10.166;2022-11-24T03:15:01;4.30;99.90
4993;DHT22;2514;53.524;10.166;2022-11-24T03:17:28;4.30;99.90
4993;DHT22;2514;53.524;10.166;2022-11-24T03:19:57;4.20;99.90
4993;DHT22;2514;53.524;10.166;2022-11-24T03:22:25;4.20;99.90
4993;DHT22;2514;53.524;10.166;2022-11-24T03:24:52;4.20;99.90
4993;DHT22;2514;53.524;10.166;2022-11-24T03:27:19;4.30;99.90
4993;DHT22;2514;53.524;10.166;2022-11-24T03:29:46;4.30;99.90
4993;DHT22;2514;53.524;10.166;2022-11-24T03:32:13;4.30;99.90
4993;DHT22;2514;53.524;10.166;2022-11-24T03:34:40;4.20;99.90
4993;DHT22;2514;53.524;10.166;2022-11-24T03:37:09;4.30;99.90
4993;DHT22;2514;53.524;10.166;2022-11-24T03:39:36;4.20;99.90
4993;DHT22;2514;53.524;10.166;2022-11-24T03:42:03;4.20;99.90
4993;DHT22;2514;53.524;10.166;2022-11-24T03:44:31;4.20;99.90
4993;DHT22;2514;53.524;10.166;2022-11-24T03:46:58;4.20;99.90
4993;DHT22;2514;53.524;10.166;2022-11-24T03:49:25;4.30;99.90
4993;DHT22;2514;53.524;10.166;2022-11-24T03:51:52;4.30;99.90
4993;DHT22;2514;53.524;10.166;2022-11-24T03:54:20;4.30;99.90
4993;DHT22;2514;53.524;10.166;2022-11-24T03:56:47;4.30;99.90
4993;DHT22;2514;53.524;10.166;2022-11-24T03:59:15;4.30;99.90
4993;DHT22;2514;53.524;10.166;2022-11-24T04:01:44;4.40;99.90
4993;DHT22;2514;53.524;10.166;2022-11-24T04:04:11;4.40;99.90
4993;DHT22;2514;53.524;10.166;2022-11-24T04:06:39;4.40;99.90
4993;DHT22;2514;53.524;10.166;2022-11-24T04:09:06;4.50;99.90
4993;DHT22;2514;53.524;10.166;2022-11-24T04:11:35;4.50;99.90
4993;DHT22;2514;53.524;10.166;2022-11-24T04:14:19;4.50;99.90
4993;DHT22;2514;53.524;10.166;2022-11-24T04:16:46;4.50;99.90
4993;DHT22;2514;53.524;10.166;2022-11-24T04:19:13;4.50;99.90
4993;DHT22;2514;53.524;10.166;2022-11-24T04:21:46;4.60;99.90
4993;DHT22;2514;53.524;10.166;2022-11-24T04:24:13;4.60;99.90
4993;DHT22;2514;53.524;10.166;2022-11-24T04:26:41;4.60;99.90
4993;DHT22;2514;53.524;10.166;2022-11-24T04:29:08;4.60;99.90
4993;DHT22;2514;53.524;10.166;2022-11-24T04:31:35;4.60;99.90
4993;DHT22;2514;53.524;10.166;2022-11-24T04:34:03;4.60;99.90
4993;DHT22;2514;53.524;10.166;2022-11-24T04:36:30;4.60;99.90
4993;DHT22;2514;53.524;10.166;2022-11-24T04:38:57;4.60;99.90
4993;DHT22;2514;53.524;10.166;2022-11-24T04:41:24;4.70;99.90
4993;DHT22;2514;53.524;10.166;2022-11-24T04:43:52;4.70;99.90
4993;DHT22;2514;53.524;10.166;2022-11-24T04:46:19;4.60;99.90
4993;DHT22;2514;53.524;10.166;2022-11-24T04:48:46;4.70;99.90
4993;DHT22;2514;53.524;10.166;2022-11-24T04:51:14;4.70;99.90
4993;DHT22;2514;53.524;10.166;2022-11-24T04:53:41;4.70;99.90
4993;DHT22;2514;53.524;10.166;2022-11-24T04:56:08;4.70;99.90
4993;DHT22;2514;53.524;10.166;2022-11-24T04:58:35;4.80;99.90
4993;DHT22;2514;53.524;10.166;2022-11-24T05:01:07;4.70;99.90
4993;DHT22;2514;53.524;10.166;2022-11-24T05:03:35;4.80;99.90
4993;DHT22;2514;53.524;10.166;2022-11-24T05:06:02;4.80;99.90
4993;DHT22;2514;53.524;10.166;2022-11-24T05:08:30;4.90;99.90
4993;DHT22;2514;53.524;10.166;2022-11-24T05:11:02;4.90;99.90
4993;DHT22;2514;53.524;10.166;2022-11-24T05:13:28;4.90;99.90
4993;DHT22;2514;53.524;10.166;2022-11-24T05:15:55;4.90;99.90
4993;DHT22;2514;53.524;10.166;2022-11-24T05:18:25;4.90;99.90
4993;DHT22;2514;53.524;10.166;2022-11-24T05:20:53;4.90;99.90
4993;DHT22;2514;53.524;10.166;2022-11-24T05:23:20;4.90;99.90
4993;DHT22;2514;53.524;10.166;2022-11-24T05:25:47;5.00;99.90
4993;DHT22;2514;53.524;10.166;2022-11-24T05:28:14;4.90;99.90
4993;DHT22;2514;53.524;10.166;2022-11-24T05:30:42;4.90;99.90
4993;DHT22;2514;53.524;10.166;2022-11-24T05:33:12;4.90;99.90
4993;DHT22;2514;53.524;10.166;2022-11-24T05:35:45;5.00;99.90
4993;DHT22;2514;53.524;10.166;2022-11-24T05:38:12;5.00;99.90
4993;DHT22;2514;53.524;10.166;2022-11-24T05:40:40;5.00;99.90
4993;DHT22;2514;53.524;10.166;2022-11-24T05:43:09;5.00;99.90
4993;DHT22;2514;53.524;10.166;2022-11-24T05:45:37;5.00;99.90
4993;DHT22;2514;53.524;10.166;2022-11-24T05:48:05;5.00;99.90
4993;DHT22;2514;53.524;10.166;2022-11-24T05:50:34;5.10;99.90
4993;DHT22;2514;53.524;10.166;2022-11-24T05:53:03;5.10;99.90
4993;DHT22;2514;53.524;10.166;2022-11-24T05:55:31;5.10;99.90
4993;DHT22;2514;53.524;10.166;2022-11-24T05:57:58;5.10;99.90
4993;DHT22;2514;53.524;10.166;2022-11-24T06:00:26;5.20;99.90
4993;DHT22;2514;53.524;10.166;2022-11-24T06:02:53;5.30;99.90
4993;DHT22;2514;53.524;10.166;2022-11-24T06:05:20;5.30;99.90
4993;DHT22;2514;53.524;10.166;2022-11-24T06:07:47;5.30;99.90
4993;DHT22;2514;53.524;10.166;2022-11-24T06:10:17;5.30;99.90
4993;DHT22;2514;53.524;10.166;2022-11-24T06:12:45;5.30;99.90
4993;DHT22;2514;53.524;10.166;2022-11-24T06:15:13;5.30;99.90
4993;DHT22;2514;53.524;10.166;2022-11-24T06:17:40;5.30;99.90
4993;DHT22;2514;53.524;10.166;2022-11-24T06:20:08;5.40;99.90
4993;DHT22;2514;53.524;10.166;2022-11-24T06:22:36;5.30;99.90
4993;DHT22;2514;53.524;10.166;2022-11-24T06:25:04;5.30;99.90
4993;DHT22;2514;53.524;10.166;2022-11-24T06:27:33;5.30;99.90
4993;DHT22;2514;53.524;10.166;2022-11-24T06:30:00;5.30;99.90
4993;DHT22;2514;53.524;10.166;2022-11-24T06:32:28;5.30;99.90
4993;DHT22;2514;53.524;10.166;2022-11-24T06:34:55;5.30;99.90
4993;DHT22;2514;53.524;10.166;2022-11-24T06:37:22;5.30;99.90
4993;DHT22;2514;53.524;10.166;2022-11-24T06:39:49;5.40;99.90
4993;DHT22;2514;53.524;10.166;2022-11-24T06:42:16;5.40;99.90
4993;DHT22;2514;53.524;10.166;2022-11-24T06:44:45;5.40;99.90
4993;DHT22;2514;53.524;10.166;2022-11-24T06:47:12;5.40;99.90
4993;DHT22;2514;53.524;10.166;2022-11-24T06:49:40;5.40;99.90
4993;DHT22;2514;53.524;10.166;2022-11-24T06:52:07;5.50;99.90
4993;DHT22;2514;53.524;10.166;2022-11-24T06:54:34;5.50;99.90
4993;DHT22;2514;53.524;10.166;2022-11-24T06:57:01;5.50;99.90
4993;DHT22;2514;53.524;10.166;2022-11-24T06:59:28;5.50;99.90
4993;DHT22;2514;53.524;10.166;2022-11-24T07:01:56;5.50;99.90
4993;DHT22;2514;53.524;10.166;2022-11-24T07:04:23;5.40;99.90
4993;DHT22;2514;53.524;10.166;2022-11-24T07:06:50;5.40;99.90
4993;DHT22;2514;53.524;10.166;2022-11-24T07:09:17;5.40;99.90
4993;DHT22;2514;53.524;10.166;2022-11-24T07:11:44;5.40;99.90
4993;DHT22;2514;53.524;10.166;2022-11-24T07:14:11;5.40;99.90
4993;DHT22;2514;53.524;10.166;2022-11-24T07:16:39;5.40;99.90
4993;DHT22;2514;53.524;10.166;2022-11-24T07:19:08;5.40;99.90
4993;DHT22;2514;53.524;10.166;2022-11-24T07:21:36;5.40;99.90
4993;DHT22;2514;53.524;10.166;2022-11-24T07:24:03;5.40;99.90
4993;DHT22;2514;53.524;10.166;2022-11-24T07:26:31;5.40;99.90
4993;DHT22;2514;53.524;10.166;2022-11-24T07:29:02;5.40;99.90
4993;DHT22;2514;53.524;10.166;2022-11-24T07:31:29;5.40;99.90
4993;DHT22;2514;53.524;10.166;2022-11-24T07:33:57;5.50;99.90
4993;DHT22;2514;53.524;10.166;2022-11-24T07:36:25;5.50;99.90
4993;DHT22;2514;53.524;10.166;2022-11-24T07:38:52;5.50;99.90
4993;DHT22;2514;53.524;10.166;2022-11-24T07:41:19;5.50;99.90
4993;DHT22;2514;53.524;10.166;2022-11-24T07:43:47;5.50;99.90
4993;DHT22;2514;53.524;10.166;2022-11-24T07:46:17;5.60;99.90
4993;DHT22;2514;53.524;10.166;2022-11-24T07:48:44;5.60;99.90
4993;DHT22;2514;53.524;10.166;2022-11-24T07:51:11;5.60;99.90
4993;DHT22;2514;53.524;10.166;2022-11-24T07:53:40;5.60;99.90
4993;DHT22;2514;53.524;10.166;2022-11-24T07:56:08;5.60;99.90
4993;DHT22;2514;53.524;10.166;2022-11-24T07:58:36;5.70;99.90
4993;DHT22;2514;53.524;10.166;2022-11-24T08:01:11;5.80;99.90
4993;DHT22;2514;53.524;10.166;2022-11-24T08:03:40;5.80;99.90
4993;DHT22;2514;53.524;10.166;2022-11-24T08:06:08;5.90;99.90
4993;DHT22;2514;53.524;10.166;2022-11-24T08:08:35;5.90;99.90
4993;DHT22;2514;53.524;10.166;2022-11-24T08:11:05;6.00;99.90
4993;DHT22;2514;53.524;10.166;2022-11-24T08:13:33;6.10;99.90
4993;DHT22;2514;53.524;10.166;2022-11-24T08:16:05;6.00;99.90
4993;DHT22;2514;53.524;10.166;2022-11-24T08:18:33;6.10;99.90
4993;DHT22;2514;53.524;10.166;2022-11-24T08:21:00;6.00;99.90
4993;DHT22;2514;53.524;10.166;2022-11-24T08:23:27;6.00;99.90
4993;DHT22;2514;53.524;10.166;2022-11-24T08:25:54;6.10;99.90
4993;DHT22;2514;53.524;10.166;2022-11-24T08:28:26;6.00;99.90
4993;DHT22;2514;53.524;10.166;2022-11-24T08:31:00;6.10;99.90
4993;DHT22;2514;53.524;10.166;2022-11-24T08:33:28;6.10;99.90
4993;DHT22;2514;53.524;10.166;2022-11-24T08:36:00;6.10;99.90
4993;DHT22;2514;53.524;10.166;2022-11-24T08:38:28;6.10;99.90
4993;DHT22;2514;53.524;10.166;2022-11-24T08:40:59;6.10;99.90
4993;DHT22;2514;53.524;10.166;2022-11-24T08:43:28;6.10;99.90
4993;DHT22;2514;53.524;10.166;2022-11-24T08:45:58;6.20;99.90
4993;DHT22;2514;53.524;10.166;2022-11-24T08:48:26;6.20;99.90
4993;DHT22;2514;53.524;10.166;2022-11-24T08:50:53;6.30;99.90
4993;DHT22;2514;53.524;10.166;2022-11-24T08:53:20;6.30;99.90
4993;DHT22;2514;53.524;10.166;2022-11-24T08:55:47;6.40;99.90
4993;DHT22;2514;53.524;10.166;2022-11-24T08:58:14;6.50;99.90
4993;DHT22;2514;53.524;10.166;2022-11-24T09:00:43;6.50;99.90
4993;DHT22;2514;53.524;10.166;2022-11-24T09:03:10;6.60;99.90
4993;DHT22;2514;53.524;10.166;2022-11-24T09:05:37;6.60;99.90
4993;DHT22;2514;53.524;10.166;2022-11-24T09:08:04;6.70;99.90
4993;DHT22;2514;53.524;10.166;2022-11-24T09:10:31;6.70;99.90
4993;DHT22;2514;53.524;10.166;2022-11-24T09:12:58;6.60;99.90
4993;DHT22;2514;53.524;10.166;2022-11-24T09:15:25;6.60;99.90
4993;DHT22;2514;53.524;10.166;2022-11-24T09:17:54;6.60;99.90
4993;DHT22;2514;53.524;10.166;2022-11-24T09:20:21;6.70;99.90
4993;DHT22;2514;53.524;10.166;2022-11-24T09:22:48;6.90;99.90
4993;DHT22;2514;53.524;10.166;2022-11-24T09:25:15;7.60;99.90
4993;DHT22;2514;53.524;10.166;2022-11-24T09:27:42;8.40;99.90
4993;DHT22;2514;53.524;10.166;2022-11-24T09:30:10;8.50;99.90
4993;DHT22;2514;53.524;10.166;2022-11-24T09:32:38;8.10;99.90
4993;DHT22;2514;53.524;10.166;2022-11-24T09:35:07;7.90;99.90
4993;DHT22;2514;53.524;10.166;2022-11-24T09:37:34;7.50;99.90
4993;DHT22;2514;53.524;10.166;2022-11-24T09:40:01;7.40;99.90
4993;DHT22;2514;53.524;10.166;2022-11-24T09:42:34;7.20;99.90
4993;DHT22;2514;53.524;10.166;2022-11-24T09:45:18;7.10;99.90
4993;DHT22;2514;53.524;10.166;2022-11-24T09:47:56;7.10;99.90
4993;DHT22;2514;53.524;10.166;2022-11-24T09:50:29;7.20;99.90
4993;DHT22;2514;53.524;10.166;2022-11-24T09:53:02;7.40;99.90
4993;DHT22;2514;53.524;10.166;2022-11-24T09:55:39;7.40;99.90
4993;DHT22;2514;53.524;10.166;2022-11-24T09:58:17;7.50;99.90
4993;DHT22;2514;53.524;10.166;2022-11-24T10:00:51;7.50;99.90
4993;DHT22;2514;53.524;10.166;2022-11-24T10:03:23;7.60;99.90
4993;DHT22;2514;53.524;10.166;2022-11-24T10:05:54;7.60;99.90
4993;DHT22;2514;53.524;10.166;2022-11-24T10:08:39;7.70;99.90
4993;DHT22;2514;53.524;10.166;2022-11-24T10:11:15;7.70;99.90
4993;DHT22;2514;53.524;10.166;2022-11-24T10:14:07;7.70;99.90
4993;DHT22;2514;53.524;10.166;2022-11-24T10:17:00;7.70;99.90
4993;DHT22;2514;53.524;10.166;2022-11-24T10:19:41;7.70;99.90
4993;DHT22;2514;53.524;10.166;2022-11-24T10:22:25;7.80;99.90
4993;DHT22;2514;53.524;10.166;2022-11-24T10:25:07;7.80;99.90
4993;DHT22;2514;53.524;10.166;2022-11-24T10:27:41;7.80;99.90
4993;DHT22;2514;53.524;10.166;2022-11-24T10:30:15;7.90;99.90
4993;DHT22;2514;53.524;10.166;2022-11-24T10:32:52;7.90;99.90
4993;DHT22;2514;53.524;10.166;2022-11-24T10:35:25;7.90;99.90
4993;DHT22;2514;53.524;10.166;2022-11-24T10:38:01;7.90;99.90
4993;DHT22;2514;53.524;10.166;2022-11-24T10:40:37;8.00;99.90
4993;DHT22;2514;53.524;10.166;2022-11-24T10:43:09;8.00;99.90
4993;DHT22;2514;53.524;10.166;2022-11-24T10:45:37;8.00;99.90
4993;DHT22;2514;53.524;10.166;2022-11-24T10:48:07;8.00;99.90
4993;DHT22;2514;53.524;10.166;2022-11-24T10:50:40;8.00;99.90
4993;DHT22;2514;53.524;10.166;2022-11-24T10:53:16;8.00;99.90
4993;DHT22;2514;53.524;10.166;2022-11-24T10:55:58;8.10;99.90
4993;DHT22;2514;53.524;10.166;2022-11-24T10:58:28;8.10;99.90
4993;DHT22;2514;53.524;10.166;2022-11-24T11:00:57;8.10;99.90
4993;DHT22;2514;53.524;10.166;2022-11-24T11:03:26;8.10;99.90
4993;DHT22;2514;53.524;10.166;2022-11-24T11:05:59;8.20;99.90
4993;DHT22;2514;53.524;10.166;2022-11-24T11:08:29;8.30;99.90
4993;DHT22;2514;53.524;10.166;2022-11-24T11:11:17;8.30;99.90
4993;DHT22;2514;53.524;10.166;2022-11-24T11:13:47;8.40;99.90
4993;DHT22;2514;53.524;10.166;2022-11-24T11:16:31;8.40;99.90
4993;DHT22;2514;53.524;10.166;2022-11-24T11:19:02;8.40;99.90
4993;DHT22;2514;53.524;10.166;2022-11-24T11:21:33;8.40;99.90
4993;DHT22;2514;53.524;10.166;2022-11-24T11:24:04;8.60;99.90
4993;DHT22;2514;53.524;10.166;2022-11-24T11:26:39;8.80;99.90
4993;DHT22;2514;53.524;10.166;2022-11-24T11:29:14;8.80;99.90
4993;DHT22;2514;53.524;10.166;2022-11-24T11:31:57;8.90;99.90
4993;DHT22;2514;53.524;10.166;2022-11-24T11:34:26;8.90;99.90
4993;DHT22;2514;53.524;10.166;2022-11-24T11:36:57;8.90;99.90
4993;DHT22;2514;53.524;10.166;2022-11-24T11:39:29;8.90;99.90
4993;DHT22;2514;53.524;10.166;2022-11-24T11:42:05;8.80;99.90
4993;DHT22;2514;53.524;10.166;2022-11-24T11:44:42;8.80;99.90
4993;DHT22;2514;53.524;10.166;2022-11-24T11:47:19;8.70;99.90
4993;DHT22;2514;53.524;10.166;2022-11-24T11:49:48;8.70;99.90
4993;DHT22;2514;53.524;10.166;2022-11-24T11:52:39;8.80;99.90
4993;DHT22;2514;53.524;10.166;2022-11-24T11:55:32;8.90;99.90
4993;DHT22;2514;53.524;10.166;2022-11-24T11:58:20;9.00;99.90
4993;DHT22;2514;53.524;10.166;2022-11-24T12:00:59;9.30;99.90
4993;DHT22;2514;53.524;10.166;2022-11-24T12:03:50;9.40;99.90
4993;DHT22;2514;53.524;10.166;2022-11-24T12:06:35;9.70;99.90
4993;DHT22;2514;53.524;10.166;2022-11-24T12:09:19;9.80;99.90
4993;DHT22;2514;53.524;10.166;2022-11-24T12:12:07;9.70;99.90
4993;DHT22;2514;53.524;10.166;2022-11-24T12:14:49;9.70;99.90
4993;DHT22;2514;53.524;10.166;2022-11-24T12:17:30;9.70;99.90
4993;DHT22;2514;53.524;10.166;2022-11-24T12:20:12;9.70;99.90
4993;DHT22;2514;53.524;10.166;2022-11-24T12:22:49;9.60;99.90
4993;DHT22;2514;53.524;10.166;2022-11-24T12:25:24;9.50;99.90
4993;DHT22;2514;53.524;10.166;2022-11-24T12:28:04;9.50;99.90
4993;DHT22;2514;53.524;10.166;2022-11-24T12:30:45;9.40;99.90
4993;DHT22;2514;53.524;10.166;2022-11-24T12:33:43;9.40;99.90
4993;DHT22;2514;53.524;10.166;2022-11-24T12:36:43;9.40;99.90
4993;DHT22;2514;53.524;10.166;2022-11-24T12:39:24;9.50;99.90
4993;DHT22;2514;53.524;10.166;2022-11-24T12:42:03;9.50;99.90
4993;DHT22;2514;53.524;10.166;2022-11-24T12:44:46;9.60;99.90
4993;DHT22;2514;53.524;10.166;2022-11-24T12:47:24;9.70;99.90
4993;DHT22;2514;53.524;10.166;2022-11-24T12:50:02;9.60;99.90
4993;DHT22;2514;53.524;10.166;2022-11-24T12:52:37;9.50;99.90
4993;DHT22;2514;53.524;10.166;2022-11-24T12:55:12;9.40;99.90
4993;DHT22;2514;53.524;10.166;2022-11-24T12:57:48;9.40;99.90
4993;DHT22;2514;53.524;10.166;2022-11-24T13:00:22;9.30;99.90
4993;DHT22;2514;53.524;10.166;2022-11-24T13:03:08;9.30;99.90
4993;DHT22;2514;53.524;10.166;2022-11-24T13:05:47;9.20;99.90
4993;DHT22;2514;53.524;10.166;2022-11-24T13:08:18;9.20;99.90
4993;DHT22;2514;53.524;10.166;2022-11-24T13:10:45;9.10;99.90
4993;DHT22;2514;53.524;10.166;2022-11-24T13:13:13;9.10;99.90
4993;DHT22;2514;53.524;10.166;2022-11-24T13:18:52;9.10;99.90
4993;DHT22;2514;53.524;10.166;2022-11-24T13:21:32;9.10;99.90
4993;DHT22;2514;53.524;10.166;2022-11-24T13:24:22;9.10;99.90
4993;DHT22;2514;53.524;10.166;2022-11-24T13:26:52;9.10;99.90
4993;DHT22;2514;53.524;10.166;2022-11-24T13:29:32;9.10;99.90
4993;DHT22;2514;53.524;10.166;2022-11-24T13:35:16;9.10;99.90
4993;DHT22;2514;53.524;10.166;2022-11-24T13:37:46;9.10;99.90
4993;DHT22;2514;53.524;10.166;2022-11-24T13:40:38;9.10;99.90
4993;DHT22;2514;53.524;10.166;2022-11-24T13:43:21;9.10;99.90
4993;DHT22;2514;53.524;10.166;2022-11-24T13:45:52;9.10;99.90
4993;DHT22;2514;53.524;10.166;2022-11-24T13:48:58;9.10;99.90
4993;DHT22;2514;53.524;10.166;2022-11-24T13:51:29;9.10;99.90
4993;DHT22;2514;53.524;10.166;2022-11-24T13:53:56;9.10;99.90
4993;DHT22;2514;53.524;10.166;2022-11-24T13:56:29;9.10;99.90
4993;DHT22;2514;53.524;10.166;2022-11-24T13:58:59;9.10;99.90
4993;DHT22;2514;53.524;10.166;2022-11-24T14:01:29;9.20;99.90
4993;DHT22;2514;53.524;10.166;2022-11-24T14:04:17;9.10;99.90
4993;DHT22;2514;53.524;10.166;2022-11-24T14:06:52;9.20;99.90
4993;DHT22;2514;53.524;10.166;2022-11-24T14:09:25;9.20;99.90
4993;DHT22;2514;53.524;10.166;2022-11-24T14:12:00;9.20;99.90
4993;DHT22;2514;53.524;10.166;2022-11-24T14:14:32;9.20;99.90
4993;DHT22;2514;53.524;10.166;2022-11-24T14:17:21;9.20;99.90
4993;DHT22;2514;53.524;10.166;2022-11-24T14:19:50;9.20;99.90
4993;DHT22;2514;53.524;10.166;2022-11-24T14:22:21;9.20;99.90
4993;DHT22;2514;53.524;10.166;2022-11-24T14:24:52;9.20;99.90
4993;DHT22;2514;53.524;10.166;2022-11-24T14:27:25;9.10;99.90
4993;DHT22;2514;53.524;10.166;2022-11-24T14:29:56;9.20;99.90
4993;DHT22;2514;53.524;10.166;2022-11-24T14:32:24;9.20;99.90
4993;DHT22;2514;53.524;10.166;2022-11-24T14:34:51;9.20;99.90
4993;DHT22;2514;53.524;10.166;2022-11-24T14:37:20;9.20;99.90
4993;DHT22;2514;53.524;10.166;2022-11-24T14:39:48;9.10;99.90
4993;DHT22;2514;53.524;10.166;2022-11-24T14:42:17;9.10;99.90
4993;DHT22;2514;53.524;10.166;2022-11-24T14:44:49;9.10;99.90
4993;DHT22;2514;53.524;10.166;2022-11-24T14:47:23;9.10;99.90
4993;DHT22;2514;53.524;10.166;2022-11-24T14:49:53;9.00;99.90
4993;DHT22;2514;53.524;10.166;2022-11-24T14:52:22;9.00;99.90
4993;DHT22;2514;53.524;10.166;2022-11-24T14:54:53;8.90;99.90
4993;DHT22;2514;53.524;10.166;2022-11-24T14:57:25;8.90;99.90
4993;DHT22;2514;53.524;10.166;2022-11-24T15:00:12;8.90;99.90
4993;DHT22;2514;53.524;10.166;2022-11-24T15:02:45;8.80;99.90
4993;DHT22;2514;53.524;10.166;2022-11-24T15:05:14;8.80;99.90
4993;DHT22;2514;53.524;10.166;2022-11-24T15:07:44;8.70;99.90
4993;DHT22;2514;53.524;10.166;2022-11-24T15:10:21;8.50;99.90
4993;DHT22;2514;53.524;10.166;2022-11-24T15:12:54;8.40;99.90
4993;DHT22;2514;53.524;10.166;2022-11-24T15:15:27;8.40;99.90
4993;DHT22;2514;53.524;10.166;2022-11-24T15:17:57;8.30;99.90
4993;DHT22;2514;53.524;10.166;2022-11-24T15:20:28;8.30;99.90
4993;DHT22;2514;53.524;10.166;2022-11-24T15:23:21;8.20;99.90
4993;DHT22;2514;53.524;10.166;2022-11-24T15:25:49;8.10;99.90
4993;DHT22;2514;53.524;10.166;2022-11-24T15:28:17;8.00;99.90
4993;DHT22;2514;53.524;10.166;2022-11-24T15:30:49;7.90;99.90
4993;DHT22;2514;53.524;10.166;2022-11-24T15:33:17;7.80;99.90
4993;DHT22;2514;53.524;10.166;2022-11-24T15:35:45;7.70;99.90
4993;DHT22;2514;53.524;10.166;2022-11-24T15:38:14;7.70;99.90
4993;DHT22;2514;53.524;10.166;2022-11-24T15:40:43;7.60;99.90
4993;DHT22;2514;53.524;10.166;2022-11-24T15:43:23;7.60;99.90
4993;DHT22;2514;53.524;10.166;2022-11-24T15:45:53;7.50;99.90
4993;DHT22;2514;53.524;10.166;2022-11-24T15:48:20;7.40;99.90
4993;DHT22;2514;53.524;10.166;2022-11-24T15:50:48;7.40;99.90
4993;DHT22;2514;53.524;10.166;2022-11-24T15:53:19;7.20;99.90
4993;DHT22;2514;53.524;10.166;2022-11-24T15:55:48;7.20;99.90
4993;DHT22;2514;53.524;10.166;2022-11-24T15:58:15;7.10;99.90
4993;DHT22;2514;53.524;10.166;2022-11-24T16:00:43;7.00;99.90
4993;DHT22;2514;53.524;10.166;2022-11-24T16:03:11;7.00;99.90
4993;DHT22;2514;53.524;10.166;2022-11-24T16:05:38;7.00;99.90
4993;DHT22;2514;53.524;10.166;2022-11-24T16:08:11;7.00;99.90
4993;DHT22;2514;53.524;10.166;2022-11-24T16:10:41;7.00;99.90
4993;DHT22;2514;53.524;10.166;2022-11-24T16:13:09;6.90;99.90
4993;DHT22;2514;53.524;10.166;2022-11-24T16:15:37;6.90;99.90
4993;DHT22;2514;53.524;10.166;2022-11-24T16:18:05;7.00;99.90
4993;DHT22;2514;53.524;10.166;2022-11-24T16:20:33;7.10;99.90
4993;DHT22;2514;53.524;10.166;2022-11-24T16:23:00;7.10;99.90
4993;DHT22;2514;53.524;10.166;2022-11-24T16:25:28;7.20;99.90
4993;DHT22;2514;53.524;10.166;2022-11-24T16:27:58;7.30;99.90
4993;DHT22;2514;53.524;10.166;2022-11-24T16:30:25;7.20;99.90
4993;DHT22;2514;53.524;10.166;2022-11-24T16:32:52;7.20;99.90
4993;DHT22;2514;53.524;10.166;2022-11-24T16:35:19;7.10;99.90